createdAt,value
2022-11-30T00:02:25.775Z,18.60
2022-11-30T00:04:59.021Z,18.30
2022-11-30T00:07:30.833Z,19.60
2022-11-30T00:10:02.943Z,20.10
2022-11-30T00:12:34.937Z,18.70
2022-11-30T00:15:07.873Z,17.30
2022-11-30T00:17:39.592Z,17.00
2022-11-30T00:20:13.045Z,21.40
2022-11-30T00:22:45.185Z,16.70
2022-11-30T00:25:17.034Z,15.70
2022-11-30T00:27:48.807Z,17.80
2022-11-30T00:30:20.804Z,16.00
2022-11-30T00:32:57.165Z,16.60
2022-11-30T00:35:29.248Z,17.50
2022-11-30T00:38:02.473Z,17.80
2022-11-30T00:40:34.220Z,17.40
2022-11-30T00:43:05.932Z,15.20
2022-11-30T00:45:37.693Z,15.30
2022-11-30T00:48:09.643Z,15.40
2022-11-30T00:50:41.818Z,13.60
2022-11-30T00:53:13.625Z,14.40
2022-11-30T00:55:46.448Z,13.60
2022-11-30T00:58:18.552Z,15.60
2022-11-30T01:00:50.392Z,15.70
2022-11-30T01:03:22.176Z,16.10
2022-11-30T01:05:54.098Z,14.60
2022-11-30T01:08:26.661Z,14.80
2022-11-30T01:11:05.469Z,14.10
2022-11-30T01:13:37.383Z,14.40
2022-11-30T01:16:16.814Z,13.80
2022-11-30T01:18:49.378Z,14.70
2022-11-30T01:21:23.332Z,14.00
2022-11-30T01:23:55.840Z,16.00
2022-11-30T01:26:27.640Z,15.70
2022-11-30T01:28:59.403Z,17.40
2022-11-30T01:31:34.227Z,17.80
2022-11-30T01:34:06.252Z,15.80
2022-11-30T01:36:39.186Z,14.70
2022-11-30T01:39:11.519Z,13.80
2022-11-30T01:41:43.253Z,14.30
2022-11-30T01:44:53.220Z,15.70
2022-11-30T01:47:31.211Z,16.40
2022-11-30T01:50:08.127Z,13.20
2022-11-30T01:52:42.215Z,13.00
2022-11-30T01:55:27.522Z,14.60
2022-11-30T01:58:02.791Z,15.50
2022-11-30T02:00:34.770Z,16.30
2022-11-30T02:03:11.354Z,13.70
2022-11-30T02:05:43.953Z,13.40
2022-11-30T02:08:15.956Z,12.90
2022-11-30T02:10:56.522Z,13.40
2022-11-30T02:13:39.879Z,11.30
2022-11-30T02:16:23.044Z,12.00
2022-11-30T02:19:06.985Z,12.50
2022-11-30T02:21:45.065Z,12.70
2022-11-30T02:24:37.232Z,13.70
2022-11-30T02:27:24.457Z,14.10
2022-11-30T02:30:02.836Z,13.30
2022-11-30T02:32:37.721Z,13.80
2022-11-30T02:35:13.163Z,12.80
2022-11-30T02:37:46.515Z,13.80
2022-11-30T02:40:22.285Z,12.10
2022-11-30T02:42:56.798Z,11.90
2022-11-30T02:45:34.862Z,13.70
2022-11-30T02:48:11.122Z,13.70
2022-11-30T02:50:49.856Z,13.40
2022-11-30T02:53:22.183Z,12.70
2022-11-30T02:55:54.410Z,13.40
2022-11-30T02:58:26.185Z,13.90
2022-11-30T03:00:57.960Z,12.70
2022-11-30T03:03:30.652Z,13.10
2022-11-30T03:06:02.371Z,12.70
2022-11-30T03:08:34.120Z,12.30
2022-11-30T03:11:06.852Z,12.80
2022-11-30T03:13:38.681Z,12.60
2022-11-30T03:16:12.511Z,12.20
2022-11-30T03:18:44.506Z,14.10
2022-11-30T03:21:16.296Z,12.90
2022-11-30T03:23:48.106Z,12.70
2022-11-30T03:26:19.871Z,15.10
2022-11-30T03:28:51.622Z,14.20
2022-11-30T03:31:23.461Z,12.90
2022-11-30T03:33:55.295Z,12.10
2022-11-30T03:36:27.107Z,13.40
2022-11-30T03:38:58.900Z,14.40
2022-11-30T03:41:30.721Z,13.80
2022-11-30T03:44:02.948Z,15.10
2022-11-30T03:46:34.783Z,15.20
2022-11-30T03:49:06.610Z,16.50
2022-11-30T03:51:38.424Z,17.10
2022-11-30T03:54:10.153Z,16.40
2022-11-30T03:56:41.944Z,13.30
2022-11-30T03:59:13.791Z,14.20
2022-11-30T04:01:45.631Z,14.80
2022-11-30T04:04:17.510Z,13.90
2022-11-30T04:06:49.290Z,16.40
2022-11-30T04:09:21.059Z,15.80
2022-11-30T04:11:53.058Z,16.70
2022-11-30T04:14:24.888Z,15.50
2022-11-30T04:16:56.657Z,16.30
2022-11-30T04:19:28.582Z,17.50
2022-11-30T04:22:00.769Z,18.60
2022-11-30T04:24:32.515Z,15.80
2022-11-30T04:27:04.470Z,17.90
2022-11-30T04:29:36.208Z,17.00
2022-11-30T04:32:08.312Z,16.90
2022-11-30T04:34:40.170Z,16.80
2022-11-30T04:37:11.940Z,17.10
2022-11-30T04:39:43.913Z,16.90
2022-11-30T04:42:15.930Z,16.90
2022-11-30T04:44:47.849Z,15.50
2022-11-30T04:47:19.816Z,16.30
2022-11-30T04:49:51.573Z,15.90
2022-11-30T04:52:23.320Z,17.20
2022-11-30T04:54:56.993Z,15.60
2022-11-30T04:57:28.981Z,18.20
2022-11-30T05:00:00.727Z,15.20
2022-11-30T05:02:33.112Z,16.30
2022-11-30T05:05:05.041Z,16.40
2022-11-30T05:07:36.894Z,17.70
2022-11-30T05:10:11.089Z,17.30
2022-11-30T05:12:42.948Z,15.60
2022-11-30T05:15:14.967Z,17.80
2022-11-30T05:17:46.928Z,17.90
2022-11-30T05:20:19.070Z,20.90
2022-11-30T05:22:51.191Z,19.60
2022-11-30T05:25:22.930Z,16.90
2022-11-30T05:27:54.669Z,18.40
2022-11-30T05:30:26.436Z,15.70
2022-11-30T05:32:58.679Z,21.30
2022-11-30T05:35:30.422Z,22.10
2022-11-30T05:38:02.161Z,20.70
2022-11-30T05:40:33.936Z,22.40
2022-11-30T05:43:06.907Z,26.00
2022-11-30T05:45:40.095Z,22.30
2022-11-30T05:48:11.925Z,25.70
2022-11-30T05:50:43.668Z,22.60
2022-11-30T05:53:15.375Z,19.20
2022-11-30T05:55:47.571Z,22.80
2022-11-30T05:58:19.591Z,21.10
2022-11-30T06:00:51.418Z,20.80
2022-11-30T06:03:23.361Z,22.60
2022-11-30T06:05:55.343Z,24.10
2022-11-30T06:08:27.665Z,23.60
2022-11-30T06:11:02.932Z,23.20
2022-11-30T06:13:34.742Z,25.20
2022-11-30T06:16:07.916Z,24.80
2022-11-30T06:18:40.500Z,24.80
2022-11-30T06:21:13.004Z,22.50
2022-11-30T06:23:45.405Z,20.90
2022-11-30T06:26:17.168Z,21.60
2022-11-30T06:28:49.216Z,25.90
2022-11-30T06:31:21.050Z,21.90
2022-11-30T06:33:52.812Z,22.40
2022-11-30T06:36:32.714Z,24.90
2022-11-30T06:39:08.871Z,22.10
2022-11-30T06:41:41.116Z,22.90
2022-11-30T06:44:12.948Z,25.50
2022-11-30T06:46:44.747Z,21.10
2022-11-30T06:49:16.525Z,22.10
2022-11-30T06:51:48.316Z,20.60
2022-11-30T06:54:20.051Z,19.90
2022-11-30T06:56:52.119Z,20.10
2022-11-30T06:59:24.186Z,20.90
2022-11-30T07:01:55.939Z,23.80
2022-11-30T07:04:27.740Z,17.90
2022-11-30T07:06:59.569Z,21.70
2022-11-30T07:09:32.474Z,17.40
2022-11-30T07:12:04.393Z,17.10
2022-11-30T07:14:36.156Z,18.00
2022-11-30T07:17:08.301Z,17.80
2022-11-30T07:19:40.421Z,16.70
2022-11-30T07:22:12.152Z,14.60
2022-11-30T07:25:03.950Z,15.30
2022-11-30T07:27:35.972Z,17.50
2022-11-30T07:30:10.387Z,17.40
2022-11-30T07:32:42.253Z,17.50
2022-11-30T07:35:14.204Z,16.00
2022-11-30T07:37:46.505Z,18.30
2022-11-30T07:40:18.389Z,16.10
2022-11-30T07:42:57.960Z,17.70
2022-11-30T07:45:29.725Z,14.10
2022-11-30T07:48:02.828Z,17.70
2022-11-30T07:50:34.699Z,16.20
2022-11-30T07:53:06.569Z,16.20
2022-11-30T07:55:38.840Z,17.10
2022-11-30T07:58:17.015Z,18.50
2022-11-30T08:00:49.508Z,19.70
2022-11-30T08:03:21.472Z,17.80
2022-11-30T08:05:53.384Z,19.00
2022-11-30T08:08:25.325Z,19.00
2022-11-30T08:11:00.681Z,17.30
2022-11-30T08:13:32.611Z,17.90
2022-11-30T08:16:06.734Z,16.80
2022-11-30T08:18:38.838Z,16.40
2022-11-30T08:21:13.724Z,17.00
2022-11-30T08:23:46.993Z,16.80
2022-11-30T08:26:21.318Z,18.70
2022-11-30T08:28:54.590Z,18.10
2022-11-30T08:31:28.682Z,19.70
2022-11-30T08:34:03.162Z,21.50
2022-11-30T08:36:36.247Z,21.70
2022-11-30T08:39:09.982Z,22.70
2022-11-30T08:41:41.966Z,20.40
2022-11-30T08:44:13.889Z,18.10
2022-11-30T08:46:53.224Z,20.50
2022-11-30T08:49:25.855Z,20.10
2022-11-30T08:54:51.425Z,18.80
2022-11-30T08:57:24.082Z,21.10
2022-11-30T08:59:56.867Z,21.80
2022-11-30T09:02:28.875Z,21.30
2022-11-30T09:05:01.069Z,21.70
2022-11-30T09:07:33.567Z,23.40
2022-11-30T09:10:06.963Z,21.90
2022-11-30T09:12:40.271Z,21.80
2022-11-30T09:15:12.880Z,20.30
2022-11-30T09:17:44.943Z,23.40
2022-11-30T09:20:17.451Z,20.50
2022-11-30T09:22:49.548Z,20.40
2022-11-30T09:25:21.713Z,21.00
2022-11-30T09:27:53.938Z,21.80
2022-11-30T09:30:26.039Z,22.30
2022-11-30T09:33:00.731Z,22.60
2022-11-30T09:35:32.960Z,23.60
2022-11-30T09:38:05.167Z,23.00
2022-11-30T09:40:39.764Z,19.70
2022-11-30T09:43:26.183Z,19.50
2022-11-30T09:46:01.060Z,18.00
2022-11-30T09:48:52.999Z,17.90
2022-11-30T09:51:29.276Z,17.40
2022-11-30T09:54:08.651Z,19.00
2022-11-30T09:56:43.800Z,22.40
2022-11-30T09:59:22.639Z,20.10
2022-11-30T10:01:57.121Z,21.60
2022-11-30T10:04:31.125Z,21.90
2022-11-30T10:07:11.099Z,22.70
2022-11-30T10:10:09.373Z,24.60
2022-11-30T10:12:52.682Z,21.70
2022-11-30T10:15:31.236Z,19.30
2022-11-30T10:20:55.050Z,18.50
2022-11-30T10:23:54.032Z,20.20
2022-11-30T10:26:33.676Z,18.40
2022-11-30T10:29:17.311Z,18.10
2022-11-30T10:31:53.094Z,21.20
2022-11-30T10:34:29.345Z,21.80
2022-11-30T10:37:12.270Z,20.40
2022-11-30T10:39:56.161Z,19.00
2022-11-30T10:42:34.019Z,18.40
2022-11-30T10:45:11.792Z,16.50
2022-11-30T10:47:48.131Z,18.00
2022-11-30T10:50:21.886Z,20.10
2022-11-30T10:52:57.006Z,19.40
2022-11-30T10:55:32.437Z,21.40
2022-11-30T10:58:11.542Z,22.50
2022-11-30T11:00:51.898Z,19.10
2022-11-30T11:03:28.296Z,15.70
2022-11-30T11:06:15.361Z,16.30
2022-11-30T11:08:47.167Z,16.20
2022-11-30T11:11:36.665Z,17.50
2022-11-30T11:14:18.893Z,16.60
2022-11-30T11:16:56.962Z,18.90
2022-11-30T11:19:35.529Z,16.50
2022-11-30T11:22:17.442Z,21.50
2022-11-30T11:24:50.470Z,21.30
2022-11-30T11:27:29.539Z,22.90
2022-11-30T11:30:05.771Z,26.00
2022-11-30T11:32:37.707Z,22.10
2022-11-30T11:35:35.568Z,18.50
2022-11-30T11:38:21.164Z,20.20
2022-11-30T11:40:59.036Z,21.60
2022-11-30T11:43:33.314Z,20.00
2022-11-30T11:46:14.133Z,19.80
2022-11-30T11:48:50.357Z,20.10
2022-11-30T11:51:32.777Z,20.80
2022-11-30T11:54:11.851Z,19.40
2022-11-30T11:56:44.487Z,19.00
2022-11-30T11:59:24.822Z,15.90
2022-11-30T12:02:04.371Z,18.80
2022-11-30T12:07:40.167Z,19.80
2022-11-30T12:10:51.198Z,19.90
2022-11-30T12:13:23.065Z,19.40
2022-11-30T12:16:07.499Z,21.80
2022-11-30T12:18:48.055Z,19.80
2022-11-30T12:21:28.805Z,19.50
2022-11-30T12:24:35.492Z,21.10
2022-11-30T12:27:21.735Z,19.50
2022-11-30T12:30:06.544Z,18.30
2022-11-30T12:32:57.864Z,17.10
2022-11-30T12:35:38.195Z,19.10
2022-11-30T12:38:19.954Z,20.70
2022-11-30T12:41:01.097Z,21.60
2022-11-30T12:43:43.914Z,21.60
2022-11-30T12:46:24.330Z,22.90
2022-11-30T12:49:20.396Z,23.80
2022-11-30T12:51:59.046Z,23.50
2022-11-30T12:54:42.661Z,19.50
2022-11-30T12:57:22.417Z,19.80
2022-11-30T13:00:02.967Z,15.70
2022-11-30T13:03:09.948Z,20.70
2022-11-30T13:05:47.305Z,19.10
2022-11-30T13:08:25.735Z,20.30
2022-11-30T13:11:01.493Z,23.80
2022-11-30T13:13:35.415Z,23.50
2022-11-30T13:16:09.619Z,26.70
2022-11-30T13:18:42.633Z,22.50
2022-11-30T13:21:23.481Z,20.00
2022-11-30T13:24:05.411Z,19.60
2022-11-30T13:26:43.669Z,24.30
2022-11-30T13:29:29.168Z,24.60
2022-11-30T13:32:27.445Z,21.60
2022-11-30T13:35:31.808Z,25.30
2022-11-30T13:41:09.455Z,30.00
2022-11-30T13:43:47.785Z,26.70
2022-11-30T13:46:23.902Z,23.00
2022-11-30T13:49:19.586Z,22.00
2022-11-30T13:52:13.677Z,20.90
2022-11-30T13:54:46.183Z,18.40
2022-11-30T13:58:04.454Z,18.30
2022-11-30T14:01:01.373Z,18.50
2022-11-30T14:03:34.001Z,18.10
2022-11-30T14:06:42.879Z,16.50
2022-11-30T14:09:17.737Z,17.70
2022-11-30T14:11:49.577Z,16.90
2022-11-30T14:14:48.056Z,16.80
2022-11-30T14:17:27.481Z,17.50
2022-11-30T14:20:03.553Z,17.60
2022-11-30T14:22:36.009Z,16.30
2022-11-30T14:25:16.330Z,17.90
2022-11-30T14:27:48.997Z,16.30
2022-11-30T14:30:23.285Z,19.00
2022-11-30T14:33:01.005Z,19.40
2022-11-30T14:35:34.334Z,19.90
2022-11-30T14:38:21.363Z,19.10
2022-11-30T14:40:55.058Z,20.60
2022-11-30T14:43:27.044Z,24.40
2022-11-30T14:46:06.474Z,22.90
2022-11-30T14:48:40.857Z,23.00
2022-11-30T14:51:14.043Z,26.80
2022-11-30T14:53:54.994Z,25.40
2022-11-30T14:56:48.882Z,25.80
2022-11-30T14:59:38.522Z,26.40
2022-11-30T15:02:20.781Z,25.70
2022-11-30T15:04:54.463Z,26.50
2022-11-30T15:07:27.616Z,28.80
2022-11-30T15:10:06.095Z,28.20
2022-11-30T15:15:22.017Z,27.40
2022-11-30T15:17:56.423Z,30.70
2022-11-30T15:20:32.237Z,33.50
2022-11-30T15:23:04.078Z,37.20
2022-11-30T15:25:41.870Z,38.80
2022-11-30T15:28:17.103Z,38.60
2022-11-30T15:30:51.349Z,38.40
2022-11-30T15:33:25.353Z,36.10
2022-11-30T15:36:18.807Z,34.20
2022-11-30T15:38:53.463Z,35.80
2022-11-30T15:41:27.185Z,33.70
2022-11-30T15:44:01.080Z,36.50
2022-11-30T15:46:38.753Z,34.30
2022-11-30T15:49:25.247Z,30.80
2022-11-30T15:52:09.198Z,29.00
2022-11-30T15:54:52.960Z,31.20
2022-11-30T15:57:27.308Z,30.30
2022-11-30T16:00:20.890Z,31.50
2022-11-30T16:03:08.127Z,34.50
2022-11-30T16:05:59.753Z,32.80
2022-11-30T16:08:32.389Z,33.50
2022-11-30T16:11:07.990Z,33.60
2022-11-30T16:13:41.062Z,32.00
2022-11-30T16:16:20.740Z,41.20
2022-11-30T16:18:53.142Z,44.40
2022-11-30T16:21:25.145Z,43.20
2022-11-30T16:24:00.080Z,53.80
2022-11-30T16:29:23.797Z,48.00
2022-11-30T16:31:55.754Z,49.80
2022-11-30T16:34:28.517Z,51.20
2022-11-30T16:37:00.599Z,45.20
2022-11-30T16:39:33.257Z,48.10
2022-11-30T16:42:05.649Z,48.60
2022-11-30T16:44:37.799Z,59.50
2022-11-30T16:47:09.656Z,44.70
2022-11-30T16:49:42.412Z,44.30
2022-11-30T16:52:18.590Z,41.40
2022-11-30T16:54:50.384Z,46.10
2022-11-30T16:57:22.360Z,40.70
2022-11-30T16:59:54.354Z,45.00
2022-11-30T17:02:28.567Z,43.70
2022-11-30T17:15:53.469Z,39.70
2022-11-30T17:18:25.420Z,39.90
2022-11-30T17:20:58.021Z,35.40
2022-11-30T17:23:30.447Z,35.30
2022-11-30T17:26:02.904Z,34.40
2022-11-30T17:28:34.673Z,31.70
2022-11-30T17:31:07.018Z,32.60
2022-11-30T17:33:43.570Z,35.40
2022-11-30T17:36:20.012Z,37.60
2022-11-30T17:38:51.932Z,36.70
2022-11-30T17:41:24.015Z,34.90
2022-11-30T17:43:55.956Z,29.70
2022-11-30T17:46:28.052Z,32.20
2022-11-30T17:49:01.203Z,31.20
2022-11-30T17:51:33.221Z,33.30
2022-11-30T17:54:05.283Z,32.80
2022-11-30T17:56:37.180Z,34.60
2022-11-30T17:59:09.522Z,33.70
2022-11-30T18:01:42.446Z,33.80
2022-11-30T18:04:14.994Z,30.60
2022-11-30T18:06:46.895Z,33.30
2022-11-30T18:09:18.715Z,29.30
2022-11-30T18:11:50.510Z,30.30
2022-11-30T18:14:22.288Z,27.40
2022-11-30T18:16:54.664Z,28.40
2022-11-30T18:19:27.017Z,27.10
2022-11-30T18:22:01.783Z,28.10
2022-11-30T18:24:33.752Z,29.40
2022-11-30T18:27:05.609Z,28.60
2022-11-30T18:29:37.537Z,24.70
2022-11-30T18:32:10.613Z,24.90
2022-11-30T18:34:42.556Z,22.80
2022-11-30T18:37:14.579Z,22.50
2022-11-30T18:39:46.464Z,22.80
2022-11-30T18:42:18.668Z,19.10
2022-11-30T18:44:51.082Z,18.80
2022-11-30T18:47:23.782Z,20.40
2022-11-30T18:49:55.785Z,23.40
2022-11-30T18:52:28.332Z,24.30
2022-11-30T18:55:00.691Z,26.80
2022-11-30T18:57:33.081Z,27.10
2022-11-30T19:00:05.839Z,29.60
2022-11-30T19:02:37.982Z,29.00
2022-11-30T19:05:13.519Z,27.90
2022-11-30T19:07:46.011Z,25.90
2022-11-30T19:10:18.522Z,27.90
2022-11-30T19:12:50.349Z,20.60
2022-11-30T19:15:22.327Z,23.90
2022-11-30T19:17:55.483Z,24.20
2022-11-30T19:20:29.389Z,25.10
2022-11-30T19:23:01.274Z,24.40
2022-11-30T19:25:33.884Z,25.30
2022-11-30T19:28:06.373Z,24.20
2022-11-30T19:30:39.345Z,24.60
2022-11-30T19:33:14.226Z,24.20
2022-11-30T19:35:46.567Z,23.10
2022-11-30T19:38:18.791Z,22.00
2022-11-30T19:40:50.847Z,20.90
2022-11-30T19:43:22.705Z,22.20
2022-11-30T19:45:54.916Z,21.80
2022-11-30T19:48:26.961Z,23.20
2022-11-30T19:50:59.321Z,25.40
2022-11-30T19:53:33.413Z,24.40
2022-11-30T19:56:09.109Z,22.70
2022-11-30T19:58:41.799Z,23.20
2022-11-30T20:01:16.954Z,23.20
2022-11-30T20:03:49.156Z,22.60
2022-11-30T20:06:21.930Z,20.60
2022-11-30T20:08:55.639Z,23.30
2022-11-30T20:11:30.639Z,22.70
2022-11-30T20:14:02.847Z,24.60
2022-11-30T20:16:35.010Z,23.20
2022-11-30T20:19:06.929Z,25.30
2022-11-30T20:21:39.247Z,27.80
2022-11-30T20:24:13.359Z,25.20
2022-11-30T20:26:45.984Z,28.40
2022-11-30T20:29:19.117Z,19.80
2022-11-30T20:31:52.439Z,22.70
2022-11-30T20:34:27.507Z,22.10
2022-11-30T20:37:03.300Z,23.30
2022-11-30T20:39:35.429Z,25.20
2022-11-30T20:42:07.614Z,25.00
2022-11-30T20:44:39.751Z,25.70
2022-11-30T20:47:12.623Z,24.80
2022-11-30T20:49:44.433Z,24.40
2022-11-30T20:52:16.407Z,25.60
2022-11-30T20:54:48.464Z,22.40
2022-11-30T20:57:22.312Z,21.20
2022-11-30T20:59:54.652Z,23.30
2022-11-30T21:02:26.762Z,23.60
2022-11-30T21:04:58.902Z,23.60
2022-11-30T21:07:33.830Z,24.40
2022-11-30T21:10:09.030Z,25.60
2022-11-30T21:12:40.826Z,27.70
2022-11-30T21:15:13.396Z,22.50
2022-11-30T21:17:45.227Z,23.50
2022-11-30T21:20:17.048Z,24.10
2022-11-30T21:22:49.340Z,24.40
2022-11-30T21:25:21.837Z,23.40
2022-11-30T21:27:54.625Z,24.80
2022-11-30T21:30:26.426Z,27.10
2022-11-30T21:32:58.277Z,27.40
2022-11-30T21:35:30.048Z,28.50
2022-11-30T21:38:02.073Z,26.30
2022-11-30T21:40:33.907Z,26.40
2022-11-30T21:43:05.724Z,25.30
2022-11-30T21:45:37.749Z,24.80
2022-11-30T21:48:09.614Z,23.60
2022-11-30T21:50:41.904Z,25.20
2022-11-30T21:53:13.672Z,23.30
2022-11-30T21:55:45.449Z,27.70
2022-11-30T21:58:17.292Z,26.40
2022-11-30T22:00:57.247Z,25.80
2022-11-30T22:03:29.763Z,26.30
2022-11-30T22:06:04.109Z,27.60
2022-11-30T22:08:36.995Z,26.60
2022-11-30T22:11:12.305Z,25.90
2022-11-30T22:13:44.972Z,27.10
2022-11-30T22:16:18.137Z,26.60
2022-11-30T22:28:37.147Z,26.30
2022-11-30T22:31:11.839Z,25.10
2022-11-30T22:33:44.788Z,25.20
2022-11-30T22:36:18.328Z,26.00
2022-11-30T22:38:54.874Z,23.60
2022-11-30T22:41:27.615Z,24.40
2022-11-30T22:43:59.900Z,22.70
2022-11-30T22:46:33.843Z,22.70
2022-11-30T22:49:07.740Z,23.70
2022-11-30T22:51:40.084Z,23.00
2022-11-30T22:54:15.191Z,23.60
2022-11-30T22:56:47.617Z,22.30
2022-11-30T22:59:19.538Z,22.90
2022-11-30T23:01:51.853Z,22.50
2022-11-30T23:04:24.203Z,23.10
2022-11-30T23:06:57.976Z,20.60
2022-11-30T23:09:29.864Z,18.10
2022-11-30T23:12:02.439Z,20.40
2022-11-30T23:14:34.501Z,19.20
2022-11-30T23:17:06.326Z,20.50
2022-11-30T23:19:38.306Z,21.90
2022-11-30T23:22:10.476Z,21.10
2022-11-30T23:24:42.303Z,21.90
2022-11-30T23:27:15.187Z,21.60
2022-11-30T23:29:47.326Z,21.40
2022-11-30T23:32:19.634Z,22.10
2022-11-30T23:34:52.959Z,19.10
2022-11-30T23:37:25.618Z,20.70
2022-11-30T23:39:57.687Z,20.00
2022-11-30T23:42:29.672Z,18.50
2022-11-30T23:45:01.586Z,22.90
2022-11-30T23:47:36.375Z,20.60
2022-11-30T23:50:10.326Z,21.50
2022-11-30T23:52:42.312Z,20.50
2022-11-30T23:55:14.192Z,21.30
2022-11-30T23:57:46.133Z,21.90
